Time;durP1;ratioP1;P1;durP2;ratioP2;P2;SDS_P1;SDS_P2;PMS_P1;PMS_P2;Temp;Humidity;BMP_temperature;BMP_pressure;BME280_temperature;BME280_humidity;BME280_pressure;Samples;Min_cycle;Max_cycle;Signal;HPM_P1;HPM_P2
2022/04/18 00:00:56;;;;;;;6.50;3.90;;;;;;;1.36;69.63;101219.00;107497;1247;70363;-64
2022/04/18 00:03:25;;;;;;;5.40;3.80;;;;;;;1.32;69.41;101217.55;107556;1247;71252;-64
2022/04/18 00:05:54;;;;;;;5.40;3.50;;;;;;;1.31;70.28;101212.27;107758;1244;58728;-64
2022/04/18 00:08:23;;;;;;;5.70;3.40;;;;;;;1.33;68.87;101210.32;107609;1247;59399;-63
2022/04/18 00:10:54;;;;;;;7.00;3.90;;;;;;;1.35;68.61;101206.83;107747;1245;73077;-65
2022/04/18 00:13:23;;;;;;;5.10;3.20;;;;;;;1.38;68.67;101205.05;107569;1247;71302;-65
2022/04/18 00:15:52;;;;;;;5.60;3.50;;;;;;;1.40;69.13;101204.83;107570;1247;69028;-63
2022/04/18 00:18:21;;;;;;;6.00;3.60;;;;;;;1.41;68.94;101203.58;107490;1244;72070;-64
2022/04/18 00:20:50;;;;;;;6.10;3.30;;;;;;;1.39;68.78;101201.44;107823;1244;59682;-64
2022/04/18 00:23:19;;;;;;;6.50;3.40;;;;;;;1.36;68.24;101197.89;107841;1244;61460;-67
2022/04/18 00:25:48;;;;;;;5.40;3.60;;;;;;;1.33;68.59;101194.20;107745;1244;73176;-63
2022/04/18 00:28:17;;;;;;;5.50;3.60;;;;;;;1.30;69.16;101189.64;107749;1244;70838;-64
2022/04/18 00:30:46;;;;;;;7.10;3.70;;;;;;;1.28;69.09;101192.10;107506;1246;68796;-65
2022/04/18 00:33:15;;;;;;;8.80;3.90;;;;;;;1.25;70.03;101189.08;107759;1247;73103;-61
2022/04/18 00:35:44;;;;;;;6.40;3.60;;;;;;;1.25;69.60;101189.27;107792;1244;61336;-64
2022/04/18 00:38:13;;;;;;;6.80;3.60;;;;;;;1.20;70.08;101183.91;107670;1248;60678;-65
2022/04/18 00:40:42;;;;;;;4.40;2.70;;;;;;;1.19;69.76;101183.06;107513;1247;72555;-66
2022/04/18 00:43:11;;;;;;;3.60;2.40;;;;;;;1.12;70.51;101184.11;107769;1245;69618;-62
2022/04/18 00:45:40;;;;;;;5.70;3.60;;;;;;;0.99;70.71;101180.48;107781;1244;68707;-67
2022/04/18 00:48:09;;;;;;;5.40;3.70;;;;;;;0.90;71.05;101176.61;107743;1247;73748;-64
2022/04/18 00:50:40;;;;;;;6.20;3.90;;;;;;;0.91;71.90;101177.27;107719;1244;60446;-65
2022/04/18 00:53:09;;;;;;;5.30;3.60;;;;;;;0.94;71.71;101179.41;107580;1247;58826;-65
2022/04/18 00:55:38;;;;;;;5.50;3.70;;;;;;;1.00;71.66;101178.90;107748;1244;74740;-63
2022/04/18 00:58:07;;;;;;;6.00;3.70;;;;;;;1.00;70.01;101172.91;107610;1247;72563;-66
2022/04/18 01:00:36;;;;;;;4.40;3.40;;;;;;;0.98;69.24;101169.39;107718;1244;70464;-64
2022/04/18 01:03:05;;;;;;;4.20;3.00;;;;;;;0.96;69.29;101168.38;107564;1246;71560;-65
2022/04/18 01:05:34;;;;;;;6.70;3.60;;;;;;;0.86;71.27;101161.95;107780;1244;59751;-65
2022/04/18 01:08:06;;;;;;;4.60;2.90;;;;;;;0.89;70.27;101159.14;107809;1244;60090;-65
2022/04/18 01:10:37;;;;;;;4.80;3.10;;;;;;;0.90;70.25;101158.24;107825;1244;72966;-66
2022/04/18 01:13:06;;;;;;;6.60;4.00;;;;;;;0.90;70.43;101159.28;107666;1248;71426;-65
2022/04/18 01:15:54;;;;;;;5.00;3.10;;;;;;;0.89;70.31;101153.98;107791;1244;71346;-64
2022/04/18 01:18:43;;;;;;;5.10;3.30;;;;;;;0.87;70.58;101149.25;107596;1247;72663;-65
2022/04/18 01:22:02;;;;;;;6.70;3.70;;;;;;;0.85;70.55;101147.26;107103;1244;60545;-64
2022/04/18 01:30:47;;;;;;;8.20;3.40;;;;;;;0.84;70.51;101145.20;107726;1244;69352;-66
2022/04/18 01:33:18;;;;;;;6.00;3.20;;;;;;;0.83;70.78;101143.52;107522;1247;69793;-70
2022/04/18 01:35:47;;;;;;;5.20;3.60;;;;;;;0.78;71.08;101137.10;107717;1244;72863;-67
2022/04/18 01:38:17;;;;;;;7.50;4.00;;;;;;;0.80;70.03;101133.14;107699;1244;59747;-67
2022/04/18 01:40:46;;;;;;;4.90;3.40;;;;;;;0.74;71.01;101131.23;107405;1247;59565;-66
2022/04/18 01:43:15;;;;;;;5.60;3.00;;;;;;;0.73;70.63;101129.00;107744;1244;72494;-66
2022/04/18 01:45:45;;;;;;;5.60;3.30;;;;;;;0.73;70.38;101127.80;107720;1244;69858;-69
2022/04/18 01:48:20;;;;;;;6.80;3.50;;;;;;;0.74;70.80;101125.89;107676;1245;70847;-68
2022/04/18 01:50:48;;;;;;;5.70;3.40;;;;;;;0.73;70.75;101123.70;107370;1244;73403;-68
2022/04/18 01:53:18;;;;;;;4.90;3.00;;;;;;;0.69;71.00;101117.95;107329;1247;59657;-69
2022/04/18 01:55:48;;;;;;;7.10;4.10;;;;;;;0.66;70.96;101112.20;107434;1247;59290;-67
2022/04/18 01:58:18;;;;;;;6.20;4.10;;;;;;;0.64;70.37;101107.48;107437;1245;73669;-66
2022/04/18 02:00:47;;;;;;;5.40;3.50;;;;;;;0.59;71.01;101109.47;107534;1247;71763;-65
2022/04/18 02:03:17;;;;;;;5.40;3.40;;;;;;;0.56;71.85;101109.55;107411;1247;71500;-64
2022/04/18 02:05:47;;;;;;;6.50;4.10;;;;;;;0.54;72.03;101108.39;107388;1247;73812;-65
2022/04/18 02:08:16;;;;;;;8.80;4.40;;;;;;;0.51;72.87;101108.81;107413;1247;60245;-64
2022/04/18 02:10:47;;;;;;;5.70;3.20;;;;;;;0.41;72.87;101110.59;107613;1244;61021;-64
2022/04/18 02:13:21;;;;;;;4.30;2.40;;;;;;;0.30;73.80;101107.45;107376;1247;74095;-65
2022/04/18 02:15:50;;;;;;;4.90;2.90;;;;;;;0.16;74.63;101107.08;107609;1244;70817;-64
2022/04/18 02:18:19;;;;;;;7.50;2.90;;;;;;;0.04;74.90;101107.36;107391;1244;69725;-70
2022/04/18 02:20:48;;;;;;;5.80;3.30;;;;;;;-0.06;75.21;101102.61;107652;1245;72835;-61
2022/04/18 02:23:17;;;;;;;7.10;4.00;;;;;;;-0.11;75.37;101099.64;107386;1247;58874;-67
2022/04/18 02:25:46;;;;;;;7.40;3.70;;;;;;;-0.18;76.04;101095.86;107362;1246;60505;-63
2022/04/18 02:28:16;;;;;;;7.50;3.80;;;;;;;-0.24;75.94;101096.66;107431;1248;74864;-64
2022/04/18 02:30:51;;;;;;;8.80;3.60;;;;;;;-0.26;76.20;101096.89;107513;1247;70944;-62
2022/04/18 02:33:20;;;;;;;6.20;4.10;;;;;;;-0.32;76.32;101094.09;107386;1247;69553;-63
2022/04/18 02:35:49;;;;;;;5.20;3.20;;;;;;;-0.36;76.27;101097.59;107548;1247;70157;-64
2022/04/18 02:38:18;;;;;;;9.00;3.80;;;;;;;-0.42;76.52;101092.59;107535;1247;59644;-62
2022/04/18 02:40:48;;;;;;;9.90;4.80;;;;;;;-0.47;76.64;101093.04;107620;1247;59025;-62
2022/04/18 02:43:17;;;;;;;8.40;3.30;;;;;;;-0.50;76.39;101091.91;107612;1247;71669;-67
2022/04/18 02:45:52;;;;;;;6.10;3.30;;;;;;;-0.53;76.68;101094.03;107667;1247;69036;-67
2022/04/18 02:48:33;;;;;;;7.10;4.00;;;;;;;-0.62;76.94;101095.22;107547;1247;68754;-66
2022/04/18 02:51:03;;;;;;;6.80;3.70;;;;;;;-0.71;77.11;101093.02;107639;1247;72014;-65
2022/04/18 02:53:32;;;;;;;4.70;2.60;;;;;;;-0.79;77.68;101088.39;107481;1246;61243;-66
2022/04/18 02:56:06;;;;;;;7.90;4.60;;;;;;;-0.87;77.89;101091.95;107628;1247;60529;-64
2022/04/18 02:58:41;;;;;;;8.00;4.70;;;;;;;-0.98;77.61;101091.98;107655;1247;73685;-65
2022/04/18 03:01:10;;;;;;;7.40;3.70;;;;;;;-1.06;77.77;101091.63;107572;1247;69841;-64
2022/04/18 03:03:40;;;;;;;7.50;3.80;;;;;;;-1.14;78.13;101094.00;107584;1247;69548;-65
2022/04/18 03:06:10;;;;;;;9.50;4.40;;;;;;;-1.21;78.56;101090.86;107516;1247;73401;-63
2022/04/18 03:08:39;;;;;;;6.40;3.90;;;;;;;-1.24;78.60;101091.79;107507;1247;60150;-65
2022/04/18 03:11:09;;;;;;;6.70;4.40;;;;;;;-1.26;78.90;101088.75;107554;1248;59412;-63
2022/04/18 03:13:47;;;;;;;7.70;4.80;;;;;;;-1.29;78.76;101085.38;107437;1247;70692;-65
2022/04/18 03:17:06;;;;;;;6.70;3.60;;;;;;;-1.25;78.37;101089.23;107400;1248;73106;-66
2022/04/18 03:19:35;;;;;;;7.40;4.10;;;;;;;-1.26;78.82;101085.15;107612;1247;68407;-66
2022/04/18 03:22:05;;;;;;;7.00;4.90;;;;;;;-1.24;79.09;101094.69;107343;1249;71694;-66
2022/04/18 03:24:35;;;;;;;7.50;4.10;;;;;;;-1.24;79.07;101089.04;107651;1247;61249;-66
2022/04/18 03:27:15;;;;;;;10.00;5.60;;;;;;;-1.23;79.00;101088.52;107748;1247;59355;-69
2022/04/18 03:29:44;;;;;;;8.20;5.60;;;;;;;-1.20;79.75;101087.43;107822;1247;72856;-67
2022/04/18 03:32:18;;;;;;;9.30;3.80;;;;;;;-1.13;79.16;101089.53;107970;1247;71907;-68
2022/04/18 03:34:47;;;;;;;7.60;4.40;;;;;;;-1.14;78.57;101091.94;107831;1243;71059;-72
2022/04/18 03:40:06;;;;;;;10.90;4.10;;;;;;;-1.16;78.52;101084.81;107805;1245;59559;-66
2022/04/18 03:42:36;;;;;;;5.00;3.20;;;;;;;-1.17;78.50;101084.32;107606;1247;58924;-70
2022/04/18 03:45:08;;;;;;;;;;;;;;;-1.20;78.37;101087.61;107885;1245;72553;-65
2022/04/18 03:47:38;;;;;;;5.80;3.10;;;;;;;-1.29;78.49;101082.98;107638;1244;72306;-65
2022/04/18 03:50:08;;;;;;;5.20;3.40;;;;;;;-1.37;78.58;101080.20;107945;1244;69547;-65
2022/04/18 03:52:40;;;;;;;7.00;3.30;;;;;;;-1.42;78.51;101078.76;107708;1247;73973;-67
2022/04/18 03:55:17;;;;;;;10.60;4.40;;;;;;;-1.46;78.84;101082.41;107799;1244;59652;-65
2022/04/18 03:57:46;;;;;;;12.20;6.40;;;;;;;-1.50;78.69;101080.09;107618;1247;59478;-65
2022/04/18 04:00:17;;;;;;;12.80;5.10;;;;;;;-1.49;78.64;101081.27;107662;1244;73424;-66
2022/04/18 04:02:47;;;;;;;11.30;4.80;;;;;;;-1.46;78.44;101080.19;107407;1248;74287;-66
2022/04/18 04:05:31;;;;;;;5.30;3.10;;;;;;;-1.43;78.25;101077.41;107936;1244;69344;-66
2022/04/18 04:08:00;;;;;;;8.30;4.50;;;;;;;-1.40;78.52;101078.21;107965;1245;73399;-62
2022/04/18 04:10:33;;;;;;;5.50;3.20;;;;;;;-1.38;78.65;101081.42;107748;1244;60320;-65
2022/04/18 04:13:03;;;;;;;7.80;3.00;;;;;;;-1.39;78.65;101082.63;107775;1244;59016;-65
2022/04/18 04:15:56;;;;;;;5.00;2.80;;;;;;;-1.40;78.55;101078.22;107791;1244;74800;-65
2022/04/18 04:18:29;;;;;;;6.80;3.40;;;;;;;-1.40;78.58;101075.48;107673;1244;70953;-67
2022/04/18 04:21:03;;;;;;;3.90;2.60;;;;;;;-1.42;78.62;101072.10;107592;1244;67978;-66
2022/04/18 04:23:32;;;;;;;5.90;3.80;;;;;;;-1.42;78.73;101079.45;107449;1247;74718;-66
2022/04/18 04:26:32;;;;;;;7.70;4.40;;;;;;;-1.42;78.59;101079.27;107459;1244;62504;-67
2022/04/18 04:29:01;;;;;;;7.50;3.70;;;;;;;-1.42;78.65;101071.77;107367;1248;61741;-66
2022/04/18 04:31:49;;;;;;;7.60;4.20;;;;;;;-1.43;78.40;101071.09;107633;1244;75662;-67
2022/04/18 04:34:19;;;;;;;10.20;5.10;;;;;;;-1.44;78.45;101074.52;107592;1245;71838;-67
2022/04/18 04:36:58;;;;;;;5.50;3.20;;;;;;;-1.42;78.07;101071.92;107592;1245;68286;-66
2022/04/18 04:39:27;;;;;;;7.50;4.30;;;;;;;-1.37;78.33;101069.95;107698;1244;72196;-67
2022/04/18 04:41:56;;;;;;;8.50;4.30;;;;;;;-1.31;78.27;101069.86;107367;1247;60947;-67
2022/04/18 04:44:25;;;;;;;5.10;3.20;;;;;;;-1.27;78.37;101066.02;107494;1244;61359;-66
2022/04/18 04:47:05;;;;;;;9.40;4.20;;;;;;;-1.23;78.35;101069.73;107619;1245;72553;-67
2022/04/18 04:49:35;;;;;;;6.30;3.60;;;;;;;-1.23;78.34;101068.52;107672;1244;71131;-66
2022/04/18 04:52:13;;;;;;;3.00;2.30;;;;;;;-1.24;78.36;101066.85;107713;1244;69758;-66
2022/04/18 04:54:42;;;;;;;6.70;3.70;;;;;;;-1.23;78.51;101069.20;107738;1244;72942;-68
2022/04/18 04:57:16;;;;;;;4.10;2.90;;;;;;;-1.25;78.56;101068.39;107742;1245;60567;-70
2022/04/18 05:00:13;;;;;;;5.00;3.50;;;;;;;-1.20;78.67;101065.56;107450;1250;60545;-68
2022/04/18 05:03:40;;;;;;;7.50;4.30;;;;;;;-1.17;78.71;101059.67;107075;1254;75950;-72
2022/04/18 05:06:11;;;;;;;6.40;3.30;;;;;;;-1.15;78.56;101062.55;107146;1253;72342;-67
2022/04/18 05:08:44;;;;;;;5.50;4.30;;;;;;;-1.14;78.81;101066.98;107428;1247;67760;-71
2022/04/18 05:11:14;;;;;;;7.70;4.10;;;;;;;-1.09;78.40;101070.46;107602;1244;74271;-68
2022/04/18 05:13:50;;;;;;;11.40;6.50;;;;;;;-1.06;78.33;101070.25;107565;1244;62644;-69
2022/04/18 05:16:42;;;;;;;10.90;6.00;;;;;;;-1.03;78.64;101075.33;107428;1247;60498;-69
2022/04/18 05:19:30;;;;;;;3.40;2.40;;;;;;;-0.91;78.09;101068.27;107538;1247;73331;-67
2022/04/18 05:22:12;;;;;;;6.50;4.10;;;;;;;-0.88;77.92;101069.23;107453;1244;72166;-68
2022/04/18 05:24:41;;;;;;;5.40;3.60;;;;;;;-0.83;78.09;101067.42;107287;1246;71238;-67
2022/04/18 05:27:15;;;;;;;4.70;3.20;;;;;;;-0.80;78.25;101059.66;107248;1247;74726;-70
2022/04/18 05:29:45;;;;;;;7.60;3.90;;;;;;;-0.75;77.97;101062.48;107291;1248;60140;-70
2022/04/18 05:32:15;;;;;;;11.70;7.40;;;;;;;-0.71;78.13;101058.30;107229;1247;60445;-67
2022/04/18 05:35:09;;;;;;;;;;;;;;;-0.66;77.89;101053.91;107418;1248;71839;-68
2022/04/18 05:37:38;;;;;;;8.60;4.40;;;;;;;-0.62;77.80;101048.85;107536;1247;73266;-71
2022/04/18 05:40:15;;;;;;;8.90;6.40;;;;;;;-0.52;77.55;101047.14;107365;1248;71306;-69
2022/04/18 05:42:45;;;;;;;8.50;4.70;;;;;;;-0.45;77.36;101045.95;107391;1247;75377;-70
2022/04/18 05:45:18;;;;;;;11.20;6.00;;;;;;;-0.32;77.26;101046.02;107355;1248;61704;-69
2022/04/18 05:47:51;;;;;;;7.20;4.20;;;;;;;-0.24;76.95;101037.44;107648;1247;59502;-70
2022/04/18 05:50:20;;;;;;;8.50;5.30;;;;;;;-0.05;76.60;101041.97;107584;1247;72441;-73
2022/04/18 05:53:07;;;;;;;16.00;9.20;;;;;;;0.12;76.54;101040.89;107642;1248;72600;-69
2022/04/18 05:55:55;;;;;;;11.70;7.50;;;;;;;0.33;75.75;101034.38;107670;1247;71699;-73
2022/04/18 05:58:35;;;;;;;11.40;6.70;;;;;;;0.46;75.14;101033.02;107496;1247;73012;-77
2022/04/18 06:01:12;;;;;;;14.00;7.30;;;;;;;0.63;74.54;101032.23;107479;1247;61110;-70
2022/04/18 06:03:42;;;;;;;10.20;5.70;;;;;;;0.84;74.29;101031.34;107562;1247;60336;-68
2022/04/18 06:06:11;;;;;;;13.20;6.80;;;;;;;0.97;73.46;101027.70;107404;1248;72332;-71
2022/04/18 06:08:40;;;;;;;6.80;4.50;;;;;;;1.13;72.98;101022.63;107408;1247;70574;-72
2022/04/18 06:11:12;;;;;;;15.90;8.20;;;;;;;1.31;72.71;101017.31;107229;1247;68980;-71
2022/04/18 06:13:57;;;;;;;12.20;6.50;;;;;;;1.39;72.85;101022.23;107551;1245;73377;-73
2022/04/18 06:17:36;;;;;;;12.10;6.40;;;;;;;1.53;72.35;101022.52;104402;1282;599898;-69
2022/04/18 06:20:06;;;;;;;10.20;6.30;;;;;;;1.61;72.17;101025.70;106745;1257;59425;-70
2022/04/18 06:22:36;;;;;;;14.30;7.50;;;;;;;1.76;71.48;101027.13;106721;1256;61211;-68
2022/04/18 06:25:06;;;;;;;15.60;7.80;;;;;;;1.76;71.41;101023.18;106828;1257;72678;-72
2022/04/18 06:27:36;;;;;;;12.80;8.20;;;;;;;1.87;71.56;101023.69;106845;1256;73238;-72
2022/04/18 06:30:06;;;;;;;11.20;8.10;;;;;;;2.04;70.86;101018.52;106485;1257;295329;-70
2022/04/18 06:32:54;;;;;;;11.80;7.70;;;;;;;2.22;69.97;101018.27;106946;1256;71437;-69
2022/04/18 06:35:25;;;;;;;12.50;8.20;;;;;;;2.21;69.62;101005.09;106993;1254;60398;-71
2022/04/18 06:37:54;;;;;;;14.10;9.20;;;;;;;2.33;69.64;101018.27;107181;1254;62622;-69
2022/04/18 06:40:41;;;;;;;13.50;8.00;;;;;;;2.50;69.18;101013.90;107070;1254;73012;-71
2022/04/18 06:43:11;;;;;;;11.30;6.40;;;;;;;2.68;68.21;101014.98;106921;1256;73532;-70
2022/04/18 06:45:45;;;;;;;11.40;6.20;;;;;;;2.85;67.29;101018.55;107096;1254;69519;-72
2022/04/18 06:48:14;;;;;;;9.40;6.30;;;;;;;2.91;66.38;101016.60;107056;1256;71471;-69
2022/04/18 06:51:36;;;;;;;13.60;6.50;;;;;;;3.04;66.26;101014.05;106923;1254;58967;-71
2022/04/18 06:54:40;;;;;;;;;;;;;;;3.19;65.00;101009.41;107175;1254;59579;-71
2022/04/18 06:57:13;;;;;;;12.30;6.40;;;;;;;3.14;65.14;101008.17;107231;1253;70334;-71
2022/04/18 06:59:54;;;;;;;10.90;6.00;;;;;;;3.04;65.19;101004.95;107169;1254;73152;-70
2022/04/18 07:02:25;;;;;;;10.90;6.10;;;;;;;3.14;65.46;100998.89;107051;1255;70949;-70
2022/04/18 07:04:55;;;;;;;11.70;6.60;;;;;;;3.26;65.92;100995.36;106873;1256;73465;-71
2022/04/18 07:07:24;;;;;;;9.70;6.20;;;;;;;3.38;65.14;100989.93;106759;1254;61929;-71
2022/04/18 07:09:53;;;;;;;12.20;6.40;;;;;;;3.52;64.45;100988.19;106802;1256;59336;-71
2022/04/18 07:12:23;;;;;;;8.70;5.30;;;;;;;3.68;63.29;100982.90;106497;1257;71052;-71
2022/04/18 07:14:55;;;;;;;9.30;5.60;;;;;;;3.80;62.27;100985.34;106885;1255;71147;-71
2022/04/18 07:17:24;;;;;;;9.30;5.10;;;;;;;3.92;60.76;100980.39;106725;1256;70548;-72
2022/04/18 07:19:53;;;;;;;6.40;4.40;;;;;;;4.21;60.78;100983.17;106835;1253;72981;-70
2022/04/18 07:22:23;;;;;;;6.80;4.00;;;;;;;4.32;61.13;100975.29;106786;1254;60111;-68
2022/04/18 07:24:57;;;;;;;9.20;4.20;;;;;;;4.47;61.13;100978.08;106769;1254;62652;-68
2022/04/18 07:27:29;;;;;;;7.70;4.50;;;;;;;4.66;59.73;100971.95;106705;1255;71999;-68
2022/04/18 07:30:02;;;;;;;7.30;4.20;;;;;;;4.85;59.05;100972.14;106763;1253;71101;-70
2022/04/18 07:32:37;;;;;;;6.30;4.20;;;;;;;4.98;58.75;100971.02;106858;1256;68738;-68
2022/04/18 07:35:09;;;;;;;8.00;4.60;;;;;;;5.10;57.54;100969.64;106706;1256;73586;-70
2022/04/18 07:40:42;;;;;;;12.20;5.40;;;;;;;5.48;55.54;100950.39;106860;1253;59110;-71
2022/04/18 07:43:12;;;;;;;4.70;3.20;;;;;;;5.52;55.63;100942.96;106852;1256;73504;-68
2022/04/18 07:45:41;;;;;;;6.50;3.90;;;;;;;5.64;53.44;100939.46;106987;1256;71079;-67
2022/04/18 07:48:10;;;;;;;6.00;3.90;;;;;;;5.73;52.77;100934.88;106970;1254;69612;-69
2022/04/18 07:53:31;;;;;;;5.30;3.20;;;;;;;6.00;50.91;100930.66;106801;1253;58511;-69
2022/04/18 07:56:00;;;;;;;6.00;3.50;;;;;;;6.07;51.46;100929.81;106865;1254;61057;-69
2022/04/18 07:58:30;;;;;;;4.70;2.50;;;;;;;6.11;51.08;100926.13;106830;1256;70865;-68
2022/04/18 08:01:00;;;;;;;5.70;3.80;;;;;;;6.22;50.51;100918.99;106825;1256;71860;-70
2022/04/18 08:03:32;;;;;;;3.60;2.70;;;;;;;6.33;50.39;100921.89;106909;1257;71168;-69
2022/04/18 08:06:01;;;;;;;8.10;4.00;;;;;;;6.38;50.29;100917.13;106883;1255;71850;-69
2022/04/18 08:08:38;;;;;;;10.20;3.60;;;;;;;6.52;50.50;100918.31;106944;1253;59049;-71
2022/04/18 08:11:11;;;;;;;7.10;3.70;;;;;;;6.71;50.00;100916.63;106880;1257;61775;-70
2022/04/18 08:13:45;;;;;;;9.00;4.20;;;;;;;6.73;49.26;100904.58;106840;1254;72670;-74
2022/04/18 08:16:33;;;;;;;6.40;3.60;;;;;;;6.95;49.69;100895.91;106940;1254;71813;-69
2022/04/18 08:19:06;;;;;;;4.70;3.00;;;;;;;7.17;48.84;100897.84;106806;1255;69522;-71
2022/04/18 08:21:37;;;;;;;5.30;3.30;;;;;;;7.32;46.92;100891.50;106422;1254;73077;-68
2022/04/18 08:24:08;;;;;;;8.30;3.50;;;;;;;7.38;46.20;100891.48;106863;1256;60092;-71
2022/04/18 08:26:40;;;;;;;5.40;2.80;;;;;;;7.63;45.94;100890.91;106841;1255;59705;-68
2022/04/18 08:29:13;;;;;;;5.60;3.30;;;;;;;7.85;45.11;100886.20;106876;1255;70673;-72
2022/04/18 08:32:08;;;;;;;;;;;;;;;7.72;45.50;100881.95;106989;1254;71890;-71
2022/04/18 08:34:37;;;;;;;5.20;3.50;;;;;;;7.69;44.84;100881.44;106624;1257;68428;-68
2022/04/18 08:37:08;;;;;;;7.80;3.80;;;;;;;7.67;44.44;100882.20;106874;1254;74147;-70
2022/04/18 08:40:37;;;;;;;7.00;3.50;;;;;;;7.70;44.38;100876.99;106230;1262;59395;-67
2022/04/18 08:43:08;;;;;;;8.10;3.80;;;;;;;7.76;44.93;100870.25;106092;1262;60596;-69
2022/04/18 08:45:38;;;;;;;5.30;3.40;;;;;;;8.00;44.54;100865.55;106635;1256;70789;-73
2022/04/18 08:53:46;;;;;;;7.60;3.30;;;;;;;8.40;41.85;100852.58;106945;1254;73650;-71
2022/04/18 08:56:15;;;;;;;6.40;4.10;;;;;;;8.46;41.94;100855.52;107172;1254;60096;-72
2022/04/18 08:58:44;;;;;;;7.80;3.50;;;;;;;8.38;41.69;100859.63;107182;1254;59848;-74
2022/04/18 09:01:16;;;;;;;4.80;3.10;;;;;;;8.56;41.42;100853.17;107149;1254;71591;-71
2022/04/18 09:03:45;;;;;;;5.00;3.20;;;;;;;8.62;40.80;100849.30;107132;1254;68880;-70
2022/04/18 09:06:16;;;;;;;7.80;3.20;;;;;;;8.38;40.01;100845.95;107105;1256;68661;-70
2022/04/18 09:08:58;;;;;;;4.70;2.90;;;;;;;8.62;38.95;100836.30;106636;1253;74274;-73
2022/04/18 09:11:38;;;;;;;8.20;3.40;;;;;;;8.42;39.51;100832.84;107101;1256;61283;-67
2022/04/18 09:14:13;;;;;;;6.50;4.10;;;;;;;8.34;40.34;100830.92;107153;1254;59062;-69
2022/04/18 09:16:44;;;;;;;8.50;3.70;;;;;;;8.31;41.19;100827.77;107310;1256;72116;-69
2022/04/18 09:19:23;;;;;;;6.90;3.20;;;;;;;8.43;40.05;100831.39;107108;1256;71472;-69
2022/04/18 09:22:00;;;;;;;6.20;3.00;;;;;;;8.42;39.44;100832.18;107069;1254;69655;-71
2022/04/18 09:24:39;;;;;;;6.70;4.20;;;;;;;8.36;39.70;100824.05;107190;1254;72919;-69
2022/04/18 09:27:25;;;;;;;6.60;3.10;;;;;;;8.35;39.95;100813.67;107046;1253;59117;-69
2022/04/18 09:30:10;;;;;;;4.30;1.80;;;;;;;8.41;39.04;100817.97;107084;1253;60266;-71
2022/04/18 09:33:06;;;;;;;4.60;2.20;;;;;;;8.45;36.81;100820.85;106973;1254;74023;-70
2022/04/18 09:36:16;;;;;;;4.90;2.50;;;;;;;8.38;36.99;100818.67;106976;1256;70899;-72
2022/04/18 09:38:50;;;;;;;5.50;2.50;;;;;;;8.49;36.95;100812.48;107007;1254;68778;-68
2022/04/18 09:41:31;;;;;;;4.40;2.30;;;;;;;8.57;37.10;100802.09;107057;1254;73497;-71
2022/04/18 09:44:29;;;;;;;4.70;2.10;;;;;;;8.61;36.04;100795.55;107055;1254;61565;-72
2022/04/18 09:46:59;;;;;;;3.60;2.00;;;;;;;8.87;35.68;100789.58;106885;1257;60988;-70
2022/04/18 09:49:39;;;;;;;4.20;2.10;;;;;;;9.26;34.73;100792.66;107148;1255;72910;-70
2022/04/18 09:52:16;;;;;;;2.80;1.90;;;;;;;9.56;32.46;100791.49;107187;1255;71050;-73
2022/04/18 09:54:58;;;;;;;3.70;2.00;;;;;;;9.71;33.23;100784.23;107365;1255;67736;-74
2022/04/18 09:57:30;;;;;;;2.90;1.90;;;;;;;9.56;31.70;100791.13;106994;1255;73591;-72
2022/04/18 09:59:59;;;;;;;3.40;2.20;;;;;;;9.63;32.65;100786.34;107127;1254;59745;-72
2022/04/18 10:02:29;;;;;;;4.80;2.00;;;;;;;9.90;32.00;100779.09;107179;1254;59597;-72
2022/04/18 10:05:01;;;;;;;4.40;1.80;;;;;;;10.26;30.75;100778.94;107233;1254;72177;-73
2022/04/18 10:07:30;;;;;;;3.50;1.70;;;;;;;10.15;30.75;100770.27;107166;1256;70341;-72
2022/04/18 10:10:00;;;;;;;3.50;2.10;;;;;;;10.09;30.68;100770.35;107273;1253;69771;-72
2022/04/18 10:12:29;;;;;;;4.00;1.80;;;;;;;9.76;31.30;100773.66;107219;1254;71646;-71
2022/04/18 10:14:58;;;;;;;4.30;2.20;;;;;;;9.67;31.67;100771.16;107116;1257;59570;-72
2022/04/18 10:17:29;;;;;;;4.20;1.80;;;;;;;9.52;31.60;100771.25;106985;1255;60492;-71
2022/04/18 10:20:25;;;;;;;7.00;2.80;;;;;;;9.50;31.39;100770.52;106970;1255;72500;-71
2022/04/18 10:23:34;;;;;;;3.70;1.90;;;;;;;9.53;31.40;100769.98;106833;1254;72507;-72
2022/04/18 10:26:40;;;;;;;3.60;2.30;;;;;;;10.10;31.10;100753.92;106872;1255;70168;-70
2022/04/18 10:29:33;;;;;;;4.80;1.80;;;;;;;10.33;29.93;100751.46;106695;1254;73683;-71
2022/04/18 10:32:05;;;;;;;9.90;2.30;;;;;;;10.47;29.23;100753.95;106783;1254;59361;-69
2022/04/18 10:34:35;;;;;;;3.80;2.20;;;;;;;10.23;29.44;100763.81;106844;1255;59011;-70
2022/04/18 10:37:09;;;;;;;4.20;2.10;;;;;;;10.15;29.18;100763.35;106734;1255;71572;-69
2022/04/18 10:39:41;;;;;;;3.80;1.90;;;;;;;10.18;29.21;100763.98;106625;1255;70381;-68
2022/04/18 10:42:29;;;;;;;4.10;1.70;;;;;;;10.10;27.94;100761.38;106863;1253;67831;-71
2022/04/18 10:45:24;;;;;;;4.10;1.80;;;;;;;10.45;28.42;100752.52;106832;1254;73126;-69
2022/04/18 10:47:59;;;;;;;7.00;2.10;;;;;;;10.48;28.04;100751.25;106591;1255;62209;-69
2022/04/18 10:50:51;;;;;;;4.20;2.30;;;;;;;10.31;28.67;100748.47;106860;1254;60479;-69
2022/04/18 10:53:36;;;;;;;4.70;2.20;;;;;;;10.38;27.74;100743.08;106756;1254;73630;-71
2022/04/18 10:56:10;;;;;;;3.90;1.60;;;;;;;10.33;27.69;100744.29;107004;1254;72729;-73
2022/04/18 10:58:43;;;;;;;3.10;1.40;;;;;;;10.23;26.64;100742.89;106799;1257;69119;-70
2022/04/18 11:01:14;;;;;;;4.90;1.60;;;;;;;10.11;27.11;100738.65;107095;1254;73923;-72
2022/04/18 11:03:55;;;;;;;3.10;1.80;;;;;;;10.34;27.76;100728.89;107052;1254;60846;-71
2022/04/18 11:06:24;;;;;;;2.70;1.50;;;;;;;11.05;25.92;100726.35;106796;1256;60018;-73
2022/04/18 11:09:15;;;;;;;3.90;2.10;;;;;;;11.36;25.81;100733.44;107135;1254;70884;-70
2022/04/18 11:12:05;;;;;;;3.10;1.60;;;;;;;11.43;25.76;100731.37;106956;1256;72286;-71
2022/04/18 11:15:00;;;;;;;4.60;2.00;;;;;;;11.15;26.70;100733.52;106951;1254;71966;-74
2022/04/18 11:17:42;;;;;;;4.10;1.80;;;;;;;10.82;27.48;100737.15;107462;1254;74285;-74
2022/04/18 11:20:35;;;;;;;5.70;2.40;;;;;;;10.75;27.49;100731.56;107303;1256;60559;-72
2022/04/18 11:23:27;;;;;;;9.30;2.20;;;;;;;10.64;27.34;100735.84;107234;1256;58930;-73
2022/04/18 11:26:02;;;;;;;3.50;2.00;;;;;;;10.44;27.52;100734.45;107409;1254;71220;-72
2022/04/18 11:28:39;;;;;;;9.60;2.50;;;;;;;10.41;28.11;100735.02;107293;1254;69576;-72
2022/04/18 11:31:21;;;;;;;4.60;2.00;;;;;;;10.42;27.64;100735.85;107194;1254;70353;-73
2022/04/18 11:33:50;;;;;;;3.40;1.70;;;;;;;10.28;27.53;100733.15;108310;1254;71790;-72
2022/04/18 11:36:24;;;;;;;4.50;1.70;;;;;;;10.08;27.96;100732.10;107002;1257;59129;-74
2022/04/18 11:39:07;;;;;;;3.90;2.10;;;;;;;10.47;27.97;100724.02;106918;1254;59928;-74
2022/04/18 11:41:36;;;;;;;5.80;2.10;;;;;;;10.92;27.38;100718.63;107007;1254;73704;-71
2022/04/18 11:44:05;;;;;;;2.30;1.60;;;;;;;11.88;27.98;100709.61;107181;1252;70787;-70
2022/04/18 11:46:34;;;;;;;3.80;1.80;;;;;;;12.85;26.40;100709.91;106996;1257;69138;-73
2022/04/18 11:49:03;;;;;;;3.80;1.80;;;;;;;13.54;25.11;100695.78;107033;1255;73224;-73
2022/04/18 11:51:42;;;;;;;3.60;1.50;;;;;;;13.50;23.61;100701.51;107112;1254;62083;-70
2022/04/18 11:54:11;;;;;;;2.60;1.60;;;;;;;12.67;23.02;100701.99;107028;1255;59521;-72
2022/04/18 11:56:40;;;;;;;5.60;1.60;;;;;;;12.88;23.26;100695.37;107065;1257;71991;-72
2022/04/18 11:59:09;;;;;;;3.50;1.70;;;;;;;13.00;23.56;100686.11;107149;1255;71408;-73
2022/04/18 12:07:19;;;;;;;3.90;1.60;;;;;;;13.98;22.02;100691.14;106964;1254;59370;-74
2022/04/18 12:09:48;;;;;;;3.80;2.00;;;;;;;13.63;22.89;100691.05;107275;1254;59437;-73
2022/04/18 12:12:29;;;;;;;3.60;1.90;;;;;;;12.99;23.60;100695.71;106761;1254;72675;-71
2022/04/18 12:15:03;;;;;;;4.30;2.40;;;;;;;12.39;24.96;100703.34;107165;1253;72936;-72
2022/04/18 12:17:36;;;;;;;3.90;2.20;;;;;;;11.95;25.43;100699.19;106881;1255;69622;-72
2022/04/18 12:20:30;;;;;;;5.90;2.00;;;;;;;11.96;25.87;100697.33;107123;1254;74320;-72
2022/04/18 12:23:02;;;;;;;6.30;2.10;;;;;;;11.99;26.08;100690.44;107089;1254;61702;-73
2022/04/18 12:25:33;;;;;;;3.10;1.80;;;;;;;12.20;25.98;100688.27;106987;1255;61148;-73